Time;durP1;ratioP1;P1;durP2;ratioP2;P2;SDS_P1;SDS_P2;PMS_P1;PMS_P2;Temp;Humidity;BMP_temperature;BMP_pressure;BME280_temperature;BME280_humidity;BME280_pressure;Samples;Min_cycle;Max_cycle;Signal;HPM_P1;HPM_P2
2022/04/06 00:01:48;;;;;;;13.05;3.78;;;;;;;;;;5026032;28;20060;-58
2022/04/06 00:04:16;;;;;;;12.70;3.38;;;;;;;;;;5023471;28;20103;-62
2022/04/06 00:06:42;;;;;;;11.63;4.28;;;;;;;;;;5024913;28;20053;-59
2022/04/06 00:09:09;;;;;;;15.13;4.05;;;;;;;;;;5035942;28;20045;-61
2022/04/06 00:11:35;;;;;;;13.10;3.42;;;;;;;;;;5025554;28;20050;-63
2022/04/06 00:14:02;;;;;;;10.43;4.07;;;;;;;;;;5023821;28;20092;-61
2022/04/06 00:16:28;;;;;;;13.57;3.65;;;;;;;;;;5030725;28;20107;-62
2022/04/06 00:18:55;;;;;;;8.80;3.75;;;;;;;;;;5016363;28;20041;-62
2022/04/06 00:21:25;;;;;;;18.50;3.72;;;;;;;;;;5030358;28;20085;-59
2022/04/06 00:23:51;;;;;;;13.32;3.53;;;;;;;;;;5024267;28;20103;-58
2022/04/06 00:26:18;;;;;;;16.00;3.42;;;;;;;;;;5030724;28;20048;-60
2022/04/06 00:28:45;;;;;;;13.68;3.47;;;;;;;;;;5024850;28;20045;-60
2022/04/06 00:31:13;;;;;;;13.65;3.50;;;;;;;;;;5030426;28;20045;-58
2022/04/06 00:33:39;;;;;;;17.17;4.18;;;;;;;;;;5025644;28;20049;-59
2022/04/06 00:36:06;;;;;;;12.32;3.72;;;;;;;;;;5031358;28;20135;-63
2022/04/06 00:38:34;;;;;;;16.40;3.88;;;;;;;;;;5024192;28;20057;-57
2022/04/06 00:41:01;;;;;;;9.52;3.35;;;;;;;;;;5030605;28;20087;-60
2022/04/06 00:43:27;;;;;;;16.52;3.30;;;;;;;;;;5028680;28;20304;-58
2022/04/06 00:45:54;;;;;;;13.95;4.70;;;;;;;;;;5027758;28;20103;-62
2022/04/06 00:48:21;;;;;;;17.95;4.63;;;;;;;;;;5029836;28;20114;-62
2022/04/06 00:50:47;;;;;;;14.65;3.75;;;;;;;;;;5023839;28;20058;-60
2022/04/06 00:53:14;;;;;;;13.70;3.67;;;;;;;;;;5029362;28;20065;-57
2022/04/06 00:55:42;;;;;;;16.50;5.15;;;;;;;;;;5024609;28;20053;-58
2022/04/06 00:58:09;;;;;;;9.73;3.75;;;;;;;;;;5029384;28;20066;-62
2022/04/06 01:00:35;;;;;;;16.25;4.82;;;;;;;;;;5023690;28;20057;-59
2022/04/06 01:03:02;;;;;;;12.55;3.83;;;;;;;;;;5029572;28;20133;-59
2022/04/06 01:05:29;;;;;;;10.15;3.78;;;;;;;;;;5023423;28;20140;-60
2022/04/06 01:07:56;;;;;;;13.20;3.92;;;;;;;;;;5029617;28;20045;-57
2022/04/06 01:10:24;;;;;;;12.68;3.60;;;;;;;;;;5017124;28;20056;-62
2022/04/06 01:12:52;;;;;;;15.68;4.85;;;;;;;;;;5009757;28;20089;-58
2022/04/06 01:15:19;;;;;;;19.55;5.07;;;;;;;;;;5021106;28;20045;-60
2022/04/06 01:17:47;;;;;;;17.60;4.72;;;;;;;;;;5031867;28;20061;-60
2022/04/06 01:20:14;;;;;;;16.35;4.15;;;;;;;;;;5024461;28;20056;-61
2022/04/06 01:22:42;;;;;;;14.38;5.15;;;;;;;;;;5028316;28;20061;-58
2022/04/06 01:25:09;;;;;;;11.02;3.72;;;;;;;;;;5023248;28;20077;-58
2022/04/06 01:27:36;;;;;;;12.35;4.55;;;;;;;;;;5028848;28;20057;-58
2022/04/06 01:30:03;;;;;;;14.35;4.57;;;;;;;;;;5028653;28;20054;-58
2022/04/06 01:32:32;;;;;;;11.32;4.20;;;;;;;;;;5023431;28;20053;-58
2022/04/06 01:34:59;;;;;;;11.68;4.80;;;;;;;;;;5030222;28;20057;-60
2022/04/06 01:37:26;;;;;;;10.35;3.85;;;;;;;;;;5023649;28;20053;-57
2022/04/06 01:39:54;;;;;;;14.25;3.80;;;;;;;;;;5029156;28;20111;-59
2022/04/06 01:42:21;;;;;;;11.98;4.10;;;;;;;;;;5009057;28;20053;-57
2022/04/06 01:44:48;;;;;;;13.32;3.85;;;;;;;;;;5009147;28;20058;-60
2022/04/06 01:47:16;;;;;;;13.20;3.92;;;;;;;;;;5015452;28;20088;-59
2022/04/06 01:52:27;;;;;;;8.55;3.63;;;;;;;;;;5010871;28;20446;-57
2022/04/06 01:54:56;;;;;;;14.32;4.38;;;;;;;;;;5008773;28;20049;-62
2022/04/06 01:57:23;;;;;;;15.85;4.10;;;;;;;;;;5012379;28;20053;-58
2022/04/06 01:59:50;;;;;;;11.77;3.92;;;;;;;;;;5028105;28;20077;-61
2022/04/06 02:02:18;;;;;;;12.27;3.72;;;;;;;;;;5023099;28;20140;-58
2022/04/06 02:04:45;;;;;;;11.32;3.47;;;;;;;;;;5028159;28;20137;-57
2022/04/06 02:07:13;;;;;;;15.48;3.65;;;;;;;;;;5022678;28;20103;-59
2022/04/06 02:09:40;;;;;;;14.70;3.80;;;;;;;;;;5028514;28;20144;-58
2022/04/06 02:12:10;;;;;;;10.60;3.28;;;;;;;;;;5022162;28;20088;-58
2022/04/06 02:14:36;;;;;;;16.65;3.70;;;;;;;;;;5029241;28;20057;-58
2022/04/06 02:17:05;;;;;;;11.52;3.03;;;;;;;;;;5024435;28;20049;-60
2022/04/06 02:19:31;;;;;;;12.32;3.75;;;;;;;;;;5013646;28;20132;-60
2022/04/06 02:21:58;;;;;;;11.32;3.30;;;;;;;;;;5027886;28;20049;-60
2022/04/06 02:24:24;;;;;;;12.38;3.58;;;;;;;;;;5022518;28;20131;-58
2022/04/06 02:26:51;;;;;;;14.00;3.45;;;;;;;;;;5028943;28;20491;-62
2022/04/06 02:29:19;;;;;;;8.02;2.47;;;;;;;;;;5023413;28;20107;-59
2022/04/06 02:31:46;;;;;;;11.77;2.85;;;;;;;;;;5025053;28;20049;-58
2022/04/06 02:34:13;;;;;;;14.57;2.97;;;;;;;;;;5022401;28;20064;-58
2022/04/06 02:36:40;;;;;;;15.57;3.28;;;;;;;;;;5028084;28;20071;-62
2022/04/06 02:39:06;;;;;;;11.45;2.67;;;;;;;;;;5021852;28;20049;-58
2022/04/06 02:41:33;;;;;;;10.30;2.63;;;;;;;;;;5026163;28;20119;-59
2022/04/06 02:43:59;;;;;;;8.50;2.33;;;;;;;;;;5021698;28;20069;-61
2022/04/06 02:46:27;;;;;;;11.75;2.92;;;;;;;;;;5028836;28;20041;-61
2022/04/06 02:48:55;;;;;;;13.30;2.90;;;;;;;;;;5025345;28;20038;-58
2022/04/06 02:51:21;;;;;;;13.77;2.45;;;;;;;;;;5030843;28;20099;-61
2022/04/06 02:53:48;;;;;;;11.95;2.70;;;;;;;;;;5019926;28;22604;-59
2022/04/06 02:56:16;;;;;;;8.25;2.33;;;;;;;;;;5008374;28;20503;-58
2022/04/06 02:58:42;;;;;;;12.43;2.72;;;;;;;;;;5006609;28;20057;-60
2022/04/06 03:01:10;;;;;;;7.78;2.72;;;;;;;;;;5024261;28;20061;-58
2022/04/06 03:03:37;;;;;;;8.80;2.20;;;;;;;;;;5021109;28;20061;-59
2022/04/06 03:06:05;;;;;;;11.20;2.50;;;;;;;;;;5014188;28;20053;-59
2022/04/06 03:08:32;;;;;;;11.63;2.92;;;;;;;;;;5024879;28;20397;-60
2022/04/06 03:10:59;;;;;;;12.43;2.97;;;;;;;;;;5017694;28;20077;-58
2022/04/06 03:13:26;;;;;;;8.65;2.17;;;;;;;;;;5025709;28;20053;-60
2022/04/06 03:15:52;;;;;;;9.98;2.22;;;;;;;;;;5019289;28;20127;-58
2022/04/06 03:18:19;;;;;;;7.60;2.28;;;;;;;;;;5026234;28;20134;-58
2022/04/06 03:20:47;;;;;;;4.20;1.90;;;;;;;;;;5020792;28;20154;-62
2022/04/06 03:23:14;;;;;;;8.60;2.27;;;;;;;;;;5024077;28;20108;-59
2022/04/06 03:25:40;;;;;;;7.95;2.17;;;;;;;;;;5018738;28;20096;-58
2022/04/06 03:28:09;;;;;;;3.10;1.50;;;;;;;;;;5026051;28;20152;-62
2022/04/06 03:30:36;;;;;;;7.40;2.13;;;;;;;;;;5020417;28;20045;-60
2022/04/06 03:33:03;;;;;;;6.13;1.80;;;;;;;;;;5025662;28;20050;-62
2022/04/06 03:35:30;;;;;;;9.32;2.17;;;;;;;;;;5020238;28;20096;-60
2022/04/06 03:37:58;;;;;;;6.88;2.42;;;;;;;;;;5009412;28;20049;-59
2022/04/06 03:40:24;;;;;;;8.60;1.88;;;;;;;;;;5024147;28;20092;-60
2022/04/06 03:42:51;;;;;;;8.52;2.10;;;;;;;;;;5022291;28;20077;-58
2022/04/06 03:45:17;;;;;;;6.22;1.85;;;;;;;;;;5026080;28;20053;-59
2022/04/06 03:47:45;;;;;;;12.02;1.88;;;;;;;;;;5020493;28;20049;-59
2022/04/06 03:50:12;;;;;;;10.05;1.88;;;;;;;;;;5028110;28;20054;-59
2022/04/06 03:52:39;;;;;;;8.23;1.90;;;;;;;;;;5021072;28;20049;-57
2022/04/06 03:55:08;;;;;;;9.85;1.92;;;;;;;;;;5041338;28;20083;-60
2022/04/06 03:57:35;;;;;;;10.57;2.05;;;;;;;;;;5019436;28;20136;-58
2022/04/06 04:00:04;;;;;;;5.95;1.48;;;;;;;;;;5025889;28;20060;-59
2022/04/06 04:02:30;;;;;;;5.40;1.52;;;;;;;;;;5014919;28;20088;-59
2022/04/06 04:04:57;;;;;;;4.93;1.70;;;;;;;;;;5039329;28;20148;-57
2022/04/06 04:07:24;;;;;;;12.05;1.70;;;;;;;;;;5020915;28;20049;-59
2022/04/06 04:09:51;;;;;;;7.85;1.58;;;;;;;;;;5027114;28;20593;-58
2022/04/06 04:12:19;;;;;;;4.85;1.42;;;;;;;;;;5020208;28;20060;-60
2022/04/06 04:14:45;;;;;;;6.03;1.40;;;;;;;;;;5026505;28;20041;-58
2022/04/06 04:17:12;;;;;;;6.53;1.48;;;;;;;;;;5021630;28;20053;-58
2022/04/06 04:19:39;;;;;;;5.32;1.30;;;;;;;;;;5028956;28;20049;-59
2022/04/06 04:22:06;;;;;;;11.13;1.60;;;;;;;;;;5018364;28;20124;-57
2022/04/06 04:24:33;;;;;;;7.07;1.40;;;;;;;;;;5028636;28;20056;-59
2022/04/06 04:26:59;;;;;;;3.53;1.05;;;;;;;;;;5026235;28;20049;-58
2022/04/06 04:29:27;;;;;;;6.20;1.50;;;;;;;;;;5020447;28;20057;-57
2022/04/06 04:31:54;;;;;;;8.73;2.20;;;;;;;;;;5026061;28;20049;-58
2022/04/06 04:34:21;;;;;;;5.93;1.60;;;;;;;;;;5020099;28;20304;-58
2022/04/06 04:36:47;;;;;;;8.70;1.40;;;;;;;;;;5027395;28;20107;-57
2022/04/06 04:39:14;;;;;;;6.47;1.40;;;;;;;;;;5020433;28;20111;-57
2022/04/06 04:41:40;;;;;;;6.60;1.30;;;;;;;;;;5026548;28;20387;-57
2022/04/06 04:44:07;;;;;;;6.28;1.40;;;;;;;;;;5019613;28;20502;-58
2022/04/06 04:46:35;;;;;;;15.77;1.88;;;;;;;;;;5026348;28;20049;-59
2022/04/06 04:49:01;;;;;;;2.77;1.20;;;;;;;;;;5020214;28;20053;-58
2022/04/06 04:51:29;;;;;;;8.30;1.30;;;;;;;;;;5026447;28;20381;-57
2022/04/06 04:53:57;;;;;;;10.25;3.15;;;;;;;;;;5036180;28;20136;-57
2022/04/06 04:56:24;;;;;;;8.57;3.17;;;;;;;;;;5022319;28;20073;-59
2022/04/06 04:58:51;;;;;;;8.25;1.77;;;;;;;;;;5021880;28;20092;-60
2022/04/06 05:01:17;;;;;;;5.72;1.50;;;;;;;;;;5026878;28;20054;-58
2022/04/06 05:03:47;;;;;;;4.22;1.48;;;;;;;;;;5022221;28;20127;-63
2022/04/06 05:06:13;;;;;;;10.65;1.67;;;;;;;;;;5028504;28;20057;-59
2022/04/06 05:08:40;;;;;;;5.60;1.52;;;;;;;;;;5028919;28;20135;-63
2022/04/06 05:11:07;;;;;;;4.97;1.20;;;;;;;;;;5022010;28;20532;-58
2022/04/06 05:13:33;;;;;;;7.00;1.50;;;;;;;;;;5028350;28;20057;-60
2022/04/06 05:16:00;;;;;;;4.13;1.42;;;;;;;;;;5023178;28;20104;-60
2022/04/06 05:18:29;;;;;;;14.77;3.92;;;;;;;;;;5044535;28;20117;-61
2022/04/06 05:20:57;;;;;;;5.68;1.60;;;;;;;;;;5004409;28;20049;-57
2022/04/06 05:23:24;;;;;;;7.18;1.35;;;;;;;;;;5010863;28;20045;-60
2022/04/06 05:25:50;;;;;;;5.25;1.65;;;;;;;;;;5022626;28;20072;-63
2022/04/06 05:28:18;;;;;;;9.80;1.60;;;;;;;;;;5028891;28;20049;-63
2022/04/06 05:30:46;;;;;;;5.15;1.40;;;;;;;;;;5020999;28;20487;-59
2022/04/06 05:33:13;;;;;;;4.38;1.17;;;;;;;;;;5028307;28;20060;-62
2022/04/06 05:35:39;;;;;;;4.70;1.30;;;;;;;;;;5021793;28;20064;-59
2022/04/06 05:38:08;;;;;;;15.40;2.53;;;;;;;;;;5028272;28;20473;-58
2022/04/06 05:40:35;;;;;;;;;;;;;;;;;;5018006;28;20145;-58
2022/04/06 05:43:01;;;;;;;9.25;1.48;;;;;;;;;;5029165;28;19995;-64
2022/04/06 05:45:28;;;;;;;10.90;2.10;;;;;;;;;;5023317;28;20050;-60
2022/04/06 05:47:55;;;;;;;6.47;1.50;;;;;;;;;;5029188;28;20060;-59
2022/04/06 05:50:21;;;;;;;15.45;2.03;;;;;;;;;;5029508;28;20057;-61
2022/04/06 05:52:48;;;;;;;10.95;1.90;;;;;;;;;;5024783;28;20118;-58
2022/04/06 05:55:16;;;;;;;6.68;1.92;;;;;;;;;;5029763;28;20104;-61
2022/04/06 05:57:44;;;;;;;7.43;1.77;;;;;;;;;;5023257;28;20049;-59
2022/04/06 06:00:11;;;;;;;7.43;1.75;;;;;;;;;;5028554;28;20062;-58
2022/04/06 06:02:38;;;;;;;8.98;2.13;;;;;;;;;;5008983;28;20474;-59
2022/04/06 06:05:05;;;;;;;9.45;1.90;;;;;;;;;;5009234;28;20049;-58
2022/04/06 06:07:31;;;;;;;8.10;2.33;;;;;;;;;;5019845;28;20119;-57
2022/04/06 06:09:58;;;;;;;8.05;2.10;;;;;;;;;;5015624;28;20050;-60
2022/04/06 06:12:26;;;;;;;13.80;2.63;;;;;;;;;;5022812;28;20263;-61
2022/04/06 06:14:52;;;;;;;5.10;1.63;;;;;;;;;;5028683;28;20088;-64
2022/04/06 06:17:19;;;;;;;8.65;2.10;;;;;;;;;;5023622;28;20081;-61
2022/04/06 06:19:46;;;;;;;10.50;2.50;;;;;;;;;;5030430;28;20054;-63
2022/04/06 06:22:12;;;;;;;5.28;1.45;;;;;;;;;;5019398;28;20053;-60
2022/04/06 06:24:39;;;;;;;8.98;1.80;;;;;;;;;;5007586;28;20050;-59
2022/04/06 06:27:06;;;;;;;12.85;2.65;;;;;;;;;;5005258;28;20054;-60
2022/04/06 06:29:34;;;;;;;8.93;2.88;;;;;;;;;;5028543;28;20087;-61
2022/04/06 06:32:01;;;;;;;6.63;1.97;;;;;;;;;;5024972;28;20511;-59
2022/04/06 06:34:28;;;;;;;8.88;2.35;;;;;;;;;;5007062;28;20062;-61
2022/04/06 06:36:54;;;;;;;6.55;1.77;;;;;;;;;;5008067;28;20050;-60
2022/04/06 06:39:21;;;;;;;16.27;2.30;;;;;;;;;;5020742;28;20045;-58
2022/04/06 06:41:47;;;;;;;6.68;2.17;;;;;;;;;;5028475;28;20503;-57
2022/04/06 06:44:14;;;;;;;8.10;1.98;;;;;;;;;;5021986;28;20049;-58
2022/04/06 06:46:42;;;;;;;8.40;1.70;;;;;;;;;;5044272;28;20107;-57
2022/04/06 06:49:08;;;;;;;5.88;1.42;;;;;;;;;;5049327;28;20102;-58
2022/04/06 06:51:35;;;;;;;7.82;1.50;;;;;;;;;;5047860;28;20147;-60
2022/04/06 06:54:02;;;;;;;9.82;1.85;;;;;;;;;;5031879;28;20049;-61
2022/04/06 06:56:28;;;;;;;6.32;1.40;;;;;;;;;;5027600;28;20059;-61
2022/04/06 06:58:55;;;;;;;6.15;1.55;;;;;;;;;;5014744;28;20060;-60
2022/04/06 07:01:22;;;;;;;11.77;2.08;;;;;;;;;;5019524;28;20069;-61
2022/04/06 07:03:50;;;;;;;5.70;1.40;;;;;;;;;;5025579;28;20033;-57
2022/04/06 07:06:17;;;;;;;8.40;1.58;;;;;;;;;;5016065;28;20053;-57
2022/04/06 07:08:44;;;;;;;7.15;1.80;;;;;;;;;;5015485;28;20070;-62
2022/04/06 07:11:11;;;;;;;11.48;1.70;;;;;;;;;;5026939;28;20151;-59
2022/04/06 07:13:37;;;;;;;4.85;1.63;;;;;;;;;;5026677;28;20064;-63
2022/04/06 07:16:05;;;;;;;8.75;1.50;;;;;;;;;;5016176;28;20048;-59
2022/04/06 07:18:31;;;;;;;6.75;2.05;;;;;;;;;;5027631;28;20052;-62
2022/04/06 07:20:59;;;;;;;4.75;1.40;;;;;;;;;;5021843;28;20053;-60
2022/04/06 07:23:26;;;;;;;3.17;1.20;;;;;;;;;;5026559;28;20077;-62
2022/04/06 07:25:52;;;;;;;3.80;1.20;;;;;;;;;;5035899;28;20292;-61
2022/04/06 07:28:21;;;;;;;6.85;1.48;;;;;;;;;;5047158;28;20130;-64
2022/04/06 07:30:47;;;;;;;6.28;1.15;;;;;;;;;;5029068;28;20045;-60
2022/04/06 07:33:15;;;;;;;4.20;1.35;;;;;;;;;;5026974;28;20068;-61
2022/04/06 07:35:41;;;;;;;3.70;1.20;;;;;;;;;;5021359;28;20073;-61
2022/04/06 07:38:12;;;;;;;2.63;0.95;;;;;;;;;;5026880;28;20259;-62
2022/04/06 07:40:40;;;;;;;8.40;1.20;;;;;;;;;;5022364;28;20049;-60
2022/04/06 07:43:07;;;;;;;5.30;1.20;;;;;;;;;;5026493;28;20111;-60
2022/04/06 07:45:34;;;;;;;5.55;0.88;;;;;;;;;;5025986;28;20076;-63
2022/04/06 07:48:01;;;;;;;17.60;2.15;;;;;;;;;;5047157;28;20044;-62
2022/04/06 07:50:27;;;;;;;4.13;1.10;;;;;;;;;;5041418;28;20080;-62
2022/04/06 07:52:54;;;;;;;6.35;1.17;;;;;;;;;;5046840;28;20059;-61
2022/04/06 07:55:22;;;;;;;6.18;1.13;;;;;;;;;;5039794;28;20053;-60
2022/04/06 07:57:49;;;;;;;9.82;1.23;;;;;;;;;;5026767;28;20077;-61
2022/04/06 08:00:17;;;;;;;5.90;1.20;;;;;;;;;;5027285;28;20084;-62
2022/04/06 08:02:43;;;;;;;4.88;1.10;;;;;;;;;;5035390;28;20067;-60
2022/04/06 08:05:10;;;;;;;4.13;1.10;;;;;;;;;;5024270;28;20054;-61
2022/04/06 08:07:39;;;;;;;4.85;0.90;;;;;;;;;;5019328;28;20054;-60
2022/04/06 08:10:07;;;;;;;4.45;1.00;;;;;;;;;;5024087;28;20103;-64
2022/04/06 08:12:35;;;;;;;5.03;1.00;;;;;;;;;;4988803;28;20050;-61
2022/04/06 08:15:01;;;;;;;4.17;0.77;;;;;;;;;;5000590;28;20049;-59
2022/04/06 08:17:32;;;;;;;9.07;1.13;;;;;;;;;;5001387;28;20339;-64
2022/04/06 08:19:59;;;;;;;2.00;0.93;;;;;;;;;;5007897;28;20056;-64
2022/04/06 08:22:25;;;;;;;6.82;1.40;;;;;;;;;;5002348;28;20070;-62
2022/04/06 08:24:52;;;;;;;3.10;1.10;;;;;;;;;;5006524;28;20061;-63
2022/04/06 08:27:18;;;;;;;3.15;0.88;;;;;;;;;;5007040;28;20451;-60
2022/04/06 08:29:46;;;;;;;5.25;1.75;;;;;;;;;;5046322;28;20053;-59
2022/04/06 08:32:14;;;;;;;5.70;1.07;;;;;;;;;;5040351;28;20052;-60
2022/04/06 08:34:40;;;;;;;4.40;1.00;;;;;;;;;;5050265;28;20310;-60
2022/04/06 08:37:08;;;;;;;2.63;1.10;;;;;;;;;;5044052;28;20053;-62
2022/04/06 08:39:35;;;;;;;8.30;1.23;;;;;;;;;;5050322;28;20130;-59
2022/04/06 08:42:01;;;;;;;8.38;1.42;;;;;;;;;;5049957;28;20059;-66
2022/04/06 08:44:28;;;;;;;2.25;0.98;;;;;;;;;;5026004;28;20140;-62
2022/04/06 08:47:03;;;;;;;2.90;1.13;;;;;;;;;;5029684;28;20065;-60
2022/04/06 08:49:30;;;;;;;5.53;1.23;;;;;;;;;;5011846;28;20176;-61
2022/04/06 08:51:57;;;;;;;5.50;1.20;;;;;;;;;;5030267;28;20056;-62
2022/04/06 08:54:24;;;;;;;6.22;1.50;;;;;;;;;;5039684;28;20052;-60
2022/04/06 08:56:50;;;;;;;6.88;1.48;;;;;;;;;;5050054;28;20041;-59
2022/04/06 08:59:17;;;;;;;4.80;1.10;;;;;;;;;;5031712;28;20053;-62
2022/04/06 09:01:43;;;;;;;6.00;1.67;;;;;;;;;;5030051;28;20057;-61
2022/04/06 09:04:11;;;;;;;4.00;1.30;;;;;;;;;;5024154;28;20076;-64
2022/04/06 09:06:41;;;;;;;3.58;1.00;;;;;;;;;;5030105;28;20072;-62
2022/04/06 09:09:09;;;;;;;5.50;1.27;;;;;;;;;;5023923;28;20096;-63
2022/04/06 09:11:41;;;;;;;3.47;1.10;;;;;;;;;;5029701;28;20052;-66
2022/04/06 09:14:08;;;;;;;7.25;1.55;;;;;;;;;;5023869;28;20065;-63
2022/04/06 09:16:35;;;;;;;4.45;1.13;;;;;;;;;;5030028;28;20057;-66
2022/04/06 09:19:07;;;;;;;4.55;1.40;;;;;;;;;;5023588;28;20052;-62
2022/04/06 09:21:39;;;;;;;6.05;1.38;;;;;;;;;;5029947;28;20383;-62
2022/04/06 09:24:06;;;;;;;3.78;0.98;;;;;;;;;;5014812;28;20049;-62
2022/04/06 09:26:33;;;;;;;5.90;1.38;;;;;;;;;;5029475;28;20064;-61
2022/04/06 09:29:00;;;;;;;10.13;1.58;;;;;;;;;;5022991;28;20045;-60
2022/04/06 09:31:26;;;;;;;10.82;1.40;;;;;;;;;;5029728;28;20054;-61
2022/04/06 09:33:57;;;;;;;8.55;1.65;;;;;;;;;;5029376;28;20119;-62
2022/04/06 09:36:27;;;;;;;4.80;1.38;;;;;;;;;;5023676;28;20148;-59
2022/04/06 09:38:55;;;;;;;5.22;1.23;;;;;;;;;;5046349;28;20053;-62
2022/04/06 09:41:21;;;;;;;9.25;1.50;;;;;;;;;;5024102;28;20111;-61
2022/04/06 09:43:50;;;;;;;8.38;1.63;;;;;;;;;;5027611;28;20119;-60
2022/04/06 09:49:01;;;;;;;9.52;1.90;;;;;;;;;;5029403;28;20092;-62
2022/04/06 09:51:29;;;;;;;4.35;1.27;;;;;;;;;;5023213;28;20471;-61
2022/04/06 09:53:57;;;;;;;5.93;1.35;;;;;;;;;;5028696;28;20049;-60
2022/04/06 09:56:24;;;;;;;3.70;1.40;;;;;;;;;;5023503;28;20053;-62
2022/04/06 09:58:51;;;;;;;5.15;1.95;;;;;;;;;;5027474;28;20060;-60
2022/04/06 10:01:17;;;;;;;7.30;1.90;;;;;;;;;;5022901;28;20136;-59
2022/04/06 10:03:45;;;;;;;3.70;1.40;;;;;;;;;;5027858;28;20052;-64
2022/04/06 10:06:12;;;;;;;5.60;1.77;;;;;;;;;;5018155;28;20042;-62
2022/04/06 10:08:39;;;;;;;6.68;2.08;;;;;;;;;;5028663;28;20057;-59
2022/04/06 10:11:07;;;;;;;6.13;1.90;;;;;;;;;;5023341;28;20136;-59
2022/04/06 10:13:34;;;;;;;6.53;1.98;;;;;;;;;;5028811;28;20046;-63
2022/04/06 10:16:01;;;;;;;5.85;2.20;;;;;;;;;;5020986;28;20133;-61
2022/04/06 10:18:28;;;;;;;8.32;2.10;;;;;;;;;;5008690;28;20154;-61
2022/04/06 10:20:56;;;;;;;7.95;1.92;;;;;;;;;;5006095;28;20699;-60
2022/04/06 10:23:33;;;;;;;5.05;1.70;;;;;;;;;;5026111;28;20088;-63
2022/04/06 10:26:02;;;;;;;4.55;2.05;;;;;;;;;;5028753;28;20061;-60
2022/04/06 10:28:32;;;;;;;7.30;1.63;;;;;;;;;;5022457;28;20053;-62
2022/04/06 10:31:14;;;;;;;11.07;2.78;;;;;;;;;;5028649;28;20049;-61
2022/04/06 10:33:41;;;;;;;5.03;1.95;;;;;;;;;;5022640;28;20053;-60
2022/04/06 10:36:17;;;;;;;7.57;1.88;;;;;;;;;;5027863;28;20049;-65
2022/04/06 10:38:59;;;;;;;5.72;2.03;;;;;;;;;;5022790;28;20061;-62
2022/04/06 10:41:25;;;;;;;3.63;1.65;;;;;;;;;;5027052;28;20138;-64
2022/04/06 10:43:53;;;;;;;6.53;2.03;;;;;;;;;;5021876;28;20053;-62
2022/04/06 10:46:33;;;;;;;7.70;1.58;;;;;;;;;;5028421;28;20056;-62
2022/04/06 10:49:10;;;;;;;5.53;2.17;;;;;;;;;;5023174;28;20056;-66
2022/04/06 10:51:37;;;;;;;9.82;2.65;;;;;;;;;;5028804;28;20045;-63
2022/04/06 10:54:19;;;;;;;6.13;2.22;;;;;;;;;;5022199;28;20127;-62
2022/04/06 10:56:52;;;;;;;6.30;2.25;;;;;;;;;;5027465;28;20053;-63
2022/04/06 10:59:20;;;;;;;7.88;1.90;;;;;;;;;;5056377;28;20053;-64
2022/04/06 11:01:48;;;;;;;8.80;2.33;;;;;;;;;;5047760;28;20040;-62
2022/04/06 11:04:18;;;;;;;6.05;2.20;;;;;;;;;;5027865;28;20050;-63
2022/04/06 11:06:55;;;;;;;8.82;2.10;;;;;;;;;;5021322;28;20066;-63
2022/04/06 11:12:10;;;;;;;9.88;2.80;;;;;;;;;;5027690;28;20064;-64
2022/04/06 11:14:38;;;;;;;8.27;3.20;;;;;;;;;;5030831;28;20120;-61
2022/04/06 11:17:20;;;;;;;8.18;2.45;;;;;;;;;;5047530;28;20053;-63
2022/04/06 11:19:50;;;;;;;4.38;1.90;;;;;;;;;;5040052;28;20057;-65
2022/04/06 11:22:16;;;;;;;7.90;2.22;;;;;;;;;;5048276;28;20517;-63
2022/04/06 11:24:44;;;;;;;10.07;2.65;;;;;;;;;;5036239;28;20136;-60
2022/04/06 11:27:25;;;;;;;10.23;3.20;;;;;;;;;;5028449;28;20051;-61
2022/04/06 11:29:59;;;;;;;4.13;1.95;;;;;;;;;;5015570;28;20076;-61
2022/04/06 11:32:26;;;;;;;7.07;2.40;;;;;;;;;;5047289;28;20053;-61
2022/04/06 11:34:58;;;;;;;8.38;2.35;;;;;;;;;;5032216;28;20049;-60
2022/04/06 11:37:26;;;;;;;7.10;2.08;;;;;;;;;;5027042;28;20076;-59
2022/04/06 11:39:56;;;;;;;6.03;2.38;;;;;;;;;;5029513;28;20130;-62
2022/04/06 11:42:23;;;;;;;10.02;2.35;;;;;;;;;;5046946;28;20060;-59
2022/04/06 11:44:49;;;;;;;6.78;2.20;;;;;;;;;;5035744;28;20072;-61
2022/04/06 11:47:26;;;;;;;5.80;2.38;;;;;;;;;;5026006;28;20045;-61
2022/04/06 11:49:54;;;;;;;6.60;2.17;;;;;;;;;;5025902;28;20048;-63
2022/04/06 11:52:20;;;;;;;4.55;2.20;;;;;;;;;;5046885;28;20107;-61
2022/04/06 11:54:50;;;;;;;5.32;2.10;;;;;;;;;;5028776;28;20065;-59
2022/04/06 11:57:18;;;;;;;8.48;2.55;;;;;;;;;;5041863;28;20060;-63
2022/04/06 11:59:52;;;;;;;5.97;2.63;;;;;;;;;;5043965;28;20121;-63
2022/04/06 12:02:20;;;;;;;8.65;2.92;;;;;;;;;;5006771;28;20054;-61
2022/04/06 12:04:48;;;;;;;7.18;2.70;;;;;;;;;;5014847;28;20103;-62
2022/04/06 12:07:23;;;;;;;10.02;2.60;;;;;;;;;;5021872;28;20060;-62
2022/04/06 12:09:51;;;;;;;5.40;2.45;;;;;;;;;;5029790;28;20060;-61
2022/04/06 12:12:18;;;;;;;10.98;2.30;;;;;;;;;;5042891;28;20474;-65
2022/04/06 12:14:45;;;;;;;4.97;2.35;;;;;;;;;;5051017;28;20061;-60
2022/04/06 12:17:13;;;;;;;12.32;2.83;;;;;;;;;;5044751;28;20068;-64
2022/04/06 12:19:41;;;;;;;6.10;2.20;;;;;;;;;;5035747;28;20101;-63
2022/04/06 12:22:08;;;;;;;11.18;2.83;;;;;;;;;;5016629;28;20059;-63
2022/04/06 12:24:38;;;;;;;5.80;2.70;;;;;;;;;;5050481;28;20129;-64
2022/04/06 12:27:05;;;;;;;10.98;3.13;;;;;;;;;;5044534;28;20133;-59
2022/04/06 12:29:35;;;;;;;9.52;3.22;;;;;;;;;;5050244;28;20138;-60
2022/04/06 12:32:02;;;;;;;7.97;3.00;;;;;;;;;;5044221;28;20048;-61
2022/04/06 12:34:33;;;;;;;9.57;3.17;;;;;;;;;;5050660;28;20049;-62
2022/04/06 12:37:29;;;;;;;3.70;2.25;;;;;;;;;;5044867;28;20131;-62
2022/04/06 12:39:49;;;;;;;5.82;2.40;;;;;;;;;;5050272;28;20064;-64
2022/04/06 12:42:16;;;;;;;5.85;2.63;;;;;;;;;;5036690;28;20052;-62
2022/04/06 12:44:55;;;;;;;9.65;2.47;;;;;;;;;;5030341;28;20521;-61
2022/04/06 12:47:23;;;;;;;6.07;2.70;;;;;;;;;;5030124;28;20053;-62
2022/04/06 12:49:49;;;;;;;7.43;2.80;;;;;;;;;;5050571;28;20072;-60
2022/04/06 12:52:18;;;;;;;7.68;2.58;;;;;;;;;;5039093;28;20064;-63
2022/04/06 12:54:46;;;;;;;7.95;2.88;;;;;;;;;;5031039;28;20053;-61
2022/04/06 12:57:14;;;;;;;8.00;2.67;;;;;;;;;;5026483;28;20176;-61
2022/04/06 12:59:45;;;;;;;6.57;2.75;;;;;;;;;;5043134;28;20049;-61
2022/04/06 13:02:18;;;;;;;7.38;2.40;;;;;;;;;;5026761;28;20057;-60
2022/04/06 13:04:45;;;;;;;9.02;2.85;;;;;;;;;;5030093;28;20045;-61
2022/04/06 13:07:12;;;;;;;6.40;2.95;;;;;;;;;;5029805;28;20054;-60
2022/04/06 13:09:50;;;;;;;8.68;2.78;;;;;;;;;;5023677;28;20049;-64
2022/04/06 13:12:16;;;;;;;6.80;2.85;;;;;;;;;;5027878;28;20073;-61
2022/04/06 13:14:43;;;;;;;6.20;2.22;;;;;;;;;;5024294;28;20107;-66
2022/04/06 13:17:09;;;;;;;8.88;2.90;;;;;;;;;;5029411;28;20128;-60
2022/04/06 13:19:36;;;;;;;7.10;2.20;;;;;;;;;;5022141;28;20057;-65
2022/04/06 13:22:03;;;;;;;7.82;2.78;;;;;;;;;;5028812;28;20111;-62
2022/04/06 13:24:29;;;;;;;6.22;2.05;;;;;;;;;;5013804;28;20057;-64
2022/04/06 13:26:57;;;;;;;6.70;2.42;;;;;;;;;;5029226;28;20107;-61
2022/04/06 13:29:24;;;;;;;7.38;2.00;;;;;;;;;;5023178;28;20057;-60
2022/04/06 13:31:51;;;;;;;7.90;2.47;;;;;;;;;;5029330;28;21181;-61
2022/04/06 13:34:20;;;;;;;4.63;2.03;;;;;;;;;;5023727;28;20057;-62
2022/04/06 13:36:48;;;;;;;4.45;2.03;;;;;;;;;;5027868;28;20058;-62
2022/04/06 13:39:15;;;;;;;8.85;2.10;;;;;;;;;;5024316;28;20068;-62
2022/04/06 13:41:41;;;;;;;5.70;1.90;;;;;;;;;;5029231;28;20058;-62
2022/04/06 13:44:10;;;;;;;6.32;1.80;;;;;;;;;;5024189;28;20116;-63
2022/04/06 13:46:37;;;;;;;5.40;2.20;;;;;;;;;;5028807;28;20068;-64
2022/04/06 13:49:04;;;;;;;4.05;1.83;;;;;;;;;;5024134;28;20046;-60
2022/04/06 13:51:31;;;;;;;4.40;1.92;;;;;;;;;;5015922;28;20060;-61
2022/04/06 13:53:58;;;;;;;6.32;1.60;;;;;;;;;;5029395;28;20548;-61
2022/04/06 13:56:24;;;;;;;11.10;2.17;;;;;;;;;;5029213;28;20139;-60
2022/04/06 13:58:51;;;;;;;5.30;1.95;;;;;;;;;;5048525;28;20076;-65
2022/04/06 14:01:19;;;;;;;5.25;1.98;;;;;;;;;;5027266;28;20061;-61
2022/04/06 14:03:45;;;;;;;6.50;2.23;;;;;;;;;;5029247;28;20061;-63
2022/04/06 14:06:14;;;;;;;8.02;2.25;;;;;;;;;;5023754;28;20053;-62
2022/04/06 14:08:41;;;;;;;6.18;2.25;;;;;;;;;;5028633;28;20073;-63
2022/04/06 14:11:07;;;;;;;5.10;2.28;;;;;;;;;;5023447;28;20049;-63
2022/04/06 14:13:34;;;;;;;4.28;2.08;;;;;;;;;;5029911;28;20080;-63
2022/04/06 14:16:00;;;;;;;3.33;1.58;;;;;;;;;;5034126;28;20052;-65
2022/04/06 14:18:28;;;;;;;3.78;1.65;;;;;;;;;;5028303;28;20059;-63
2022/04/06 14:20:55;;;;;;;5.90;2.05;;;;;;;;;;5022591;28;20099;-59
2022/04/06 14:23:21;;;;;;;6.05;2.35;;;;;;;;;;5019477;28;20049;-62
2022/04/06 14:25:48;;;;;;;6.55;2.17;;;;;;;;;;5025280;28;20103;-64
2022/04/06 14:28:14;;;;;;;3.50;2.08;;;;;;;;;;5048453;28;20076;-60
2022/04/06 14:30:48;;;;;;;5.00;2.15;;;;;;;;;;5041250;28;20076;-62
2022/04/06 14:33:15;;;;;;;7.50;2.05;;;;;;;;;;5009002;28;20393;-60
2022/04/06 14:35:43;;;;;;;5.32;2.22;;;;;;;;;;5009070;28;20057;-62
2022/04/06 14:38:10;;;;;;;5.50;2.10;;;;;;;;;;5023634;28;20057;-62
2022/04/06 14:40:37;;;;;;;5.65;1.65;;;;;;;;;;5029031;28;20053;-64
2022/04/06 14:43:04;;;;;;;3.28;1.50;;;;;;;;;;5037988;28;20113;-64
2022/04/06 14:45:30;;;;;;;3.92;1.92;;;;;;;;;;5048376;28;20076;-62
2022/04/06 14:47:57;;;;;;;3.67;1.90;;;;;;;;;;5027745;28;20061;-64
2022/04/06 14:50:24;;;;;;;4.25;1.77;;;;;;;;;;5028464;28;20124;-65
2022/04/06 14:52:51;;;;;;;7.53;1.88;;;;;;;;;;5032977;28;20056;-60